Terminal Aerodrome Forecast
Issued by NWS

Home | Current Version | Previous Version | Text Only | Print | Product List | Glossary On
Versions: 1 2 3 4 5 6 7 8 9 10 11 12 13 14 15 16 17 18 19 20 21 22
902
FTUS41 KOKX 080531
TAFHPN
TAF
KHPN 080531Z 0806/0906 04011KT P6SM BKN100
     FM080900 02014KT P6SM SCT020 OVC080
     FM081300 01014KT 5SM -SN OVC015
     FM081600 01013G20KT 2SM -SN OVC015
     FM082000 02008KT 3SM -SN SCT007 OVC015
     FM082300 02006KT P6SM OVC025
     FM090300 VRB04KT P6SM OVC025
      AMD NOT SKED=

USA.gov is the U.S. government's official web portal to all federal, state and local government web resources and services.